Time;durP1;ratioP1;P1;durP2;ratioP2;P2;SDS_P1;SDS_P2;PMS_P1;PMS_P2;Temp;Humidity;BMP_temperature;BMP_pressure;BME280_temperature;BME280_humidity;BME280_pressure;Samples;Min_cycle;Max_cycle;Signal;HPM_P1;HPM_P2
2024/01/05 00:01:39;;;;;;;2.10;0.77;;;;;;;8.36;50.39;93949.63;6111077;23;20013;-86
2024/01/05 00:04:04;;;;;;;2.25;0.80;;;;;;;8.25;50.97;93945.78;6134546;23;20009;-86
2024/01/05 00:06:30;;;;;;;2.28;0.90;;;;;;;8.22;50.28;93915.09;6134229;23;20028;-86
2024/01/05 00:08:56;;;;;;;2.35;0.70;;;;;;;8.17;50.37;93930.44;6159344;23;20075;-86
2024/01/05 00:11:22;;;;;;;1.83;0.50;;;;;;;8.19;50.83;93937.00;6134634;23;20005;-86
2024/01/05 00:13:47;;;;;;;2.38;0.80;;;;;;;8.20;50.79;93935.22;6159151;23;20008;-86
2024/01/05 00:16:23;;;;;;;2.20;0.65;;;;;;;8.18;50.23;93926.84;6159471;23;20011;-85
2024/01/05 00:18:49;;;;;;;2.58;0.68;;;;;;;8.50;49.58;93938.31;6134212;23;20063;-85
2024/01/05 00:21:22;;;;;;;2.67;0.70;;;;;;;8.31;49.90;93944.22;6134177;23;20009;-86
2024/01/05 00:23:50;;;;;;;1.30;0.80;;;;;;;8.29;50.40;93938.44;6133752;23;20016;-86
2024/01/05 00:26:15;;;;;;;1.33;0.60;;;;;;;8.27;50.21;93954.16;6158865;23;20035;-86
2024/01/05 00:28:41;;;;;;;2.65;0.80;;;;;;;8.12;50.39;93936.19;6158393;23;20005;-86
2024/01/05 00:31:09;;;;;;;1.65;0.68;;;;;;;8.34;50.13;93964.53;6159018;23;20013;-86
2024/01/05 00:33:39;;;;;;;1.30;0.70;;;;;;;8.41;49.37;93957.59;6159073;23;20088;-86
2024/01/05 00:36:05;;;;;;;1.85;0.70;;;;;;;8.35;50.61;93972.13;6133588;23;20095;-84
2024/01/05 00:38:31;;;;;;;1.67;0.70;;;;;;;8.45;50.57;93974.38;6158996;23;20043;-85
2024/01/05 00:40:56;;;;;;;1.33;0.63;;;;;;;8.35;49.92;93968.75;6134244;23;20013;-86
2024/01/05 00:43:22;;;;;;;1.60;0.60;;;;;;;8.44;49.22;93988.34;6134231;23;20005;-86
2024/01/05 00:45:49;;;;;;;0.90;0.65;;;;;;;8.53;48.36;93992.34;6133738;23;20092;-86
2024/01/05 00:48:15;;;;;;;0.88;0.50;;;;;;;8.34;48.48;93980.09;6133949;23;20058;-86
2024/01/05 00:50:41;;;;;;;1.92;0.70;;;;;;;8.44;48.86;93975.38;6158396;23;20009;-86
2024/01/05 00:53:09;;;;;;;1.80;0.68;;;;;;;8.20;49.67;93977.44;6109687;23;20013;-86
2024/01/05 00:55:35;;;;;;;1.38;0.65;;;;;;;8.11;49.96;93962.25;6134231;23;20031;-86
2024/01/05 00:58:00;;;;;;;1.33;0.60;;;;;;;8.28;49.23;93962.72;6134091;23;20017;-85
2024/01/05 01:02:52;;;;;;;1.30;0.70;;;;;;;8.45;47.86;93951.06;6210645;23;20020;-86
2024/01/05 01:05:17;;;;;;;2.30;0.70;;;;;;;8.54;48.04;93957.66;6163629;23;20004;-86
2024/01/05 01:07:46;;;;;;;1.20;0.60;;;;;;;8.48;48.52;93955.84;6163123;23;20092;-86
2024/01/05 01:10:11;;;;;;;1.00;0.60;;;;;;;8.52;48.50;93959.66;6188449;23;20005;-86
2024/01/05 01:12:37;;;;;;;1.25;0.55;;;;;;;8.59;48.61;93957.88;6163206;23;20017;-86
2024/01/05 01:15:02;;;;;;;0.75;0.60;;;;;;;8.57;48.13;93946.91;6188021;23;20008;-86
2024/01/05 01:17:31;;;;;;;0.85;0.60;;;;;;;8.57;47.81;93952.09;6188211;23;20012;-86
2024/01/05 01:19:56;;;;;;;1.40;0.55;;;;;;;8.61;48.18;93947.31;6188578;23;20080;-86
2024/01/05 01:22:22;;;;;;;1.70;0.65;;;;;;;8.44;47.71;93936.50;6186727;23;20012;-86
2024/01/05 01:24:48;;;;;;;1.35;0.60;;;;;;;8.42;48.03;93933.31;6161666;23;20020;-87
2024/01/05 01:27:14;;;;;;;1.25;0.40;;;;;;;8.49;48.38;93943.69;6186457;23;20035;-86
2024/01/05 01:29:39;;;;;;;0.70;0.60;;;;;;;8.46;47.83;93929.34;6161486;23;20013;-86
2024/01/05 01:32:05;;;;;;;1.23;0.60;;;;;;;8.57;47.92;93936.53;6186815;23;20008;-86
2024/01/05 01:34:30;;;;;;;1.42;0.68;;;;;;;8.49;47.77;93930.72;6163059;23;20001;-86
2024/01/05 01:36:57;;;;;;;2.40;0.73;;;;;;;8.33;48.29;93926.69;6188025;23;20087;-86
2024/01/05 01:39:23;;;;;;;0.73;0.60;;;;;;;8.16;48.31;93915.88;6163372;23;20036;-86
2024/01/05 01:41:49;;;;;;;0.80;0.50;;;;;;;8.29;48.33;93920.31;6186960;23;20036;-86
2024/01/05 01:44:15;;;;;;;0.82;0.52;;;;;;;8.39;48.10;93903.38;6186285;23;20015;-86
2024/01/05 01:46:43;;;;;;;1.35;0.40;;;;;;;8.30;48.29;93901.97;6187706;23;20012;-86
2024/01/05 01:49:08;;;;;;;0.40;0.40;;;;;;;8.11;48.98;93892.34;6187557;23;20088;-86
2024/01/05 01:51:34;;;;;;;1.42;0.55;;;;;;;8.25;48.60;93898.38;6163149;23;20039;-85
2024/01/05 01:54:04;;;;;;;1.02;0.60;;;;;;;8.38;48.54;93916.56;6187944;23;20000;-86
2024/01/05 01:56:31;;;;;;;1.13;0.60;;;;;;;8.36;48.16;93905.59;6187411;23;20031;-86
2024/01/05 01:58:56;;;;;;;0.77;0.50;;;;;;;8.20;48.42;93902.31;6163046;23;20004;-85
2024/01/05 02:01:22;;;;;;;1.48;0.43;;;;;;;8.29;48.21;93905.56;6162486;23;20005;-86
2024/01/05 02:03:48;;;;;;;0.80;0.50;;;;;;;8.34;48.22;93890.22;6163213;23;20063;-86
2024/01/05 02:06:13;;;;;;;1.35;0.50;;;;;;;8.48;48.29;93905.84;6162809;23;20036;-85
2024/01/05 02:08:39;;;;;;;1.20;0.50;;;;;;;8.42;48.12;93897.06;6188083;23;20092;-86
2024/01/05 02:11:04;;;;;;;2.35;0.50;;;;;;;8.53;47.58;93908.59;6187343;23;20000;-86
2024/01/05 02:13:31;;;;;;;0.77;0.35;;;;;;;8.38;47.48;93901.00;6187546;23;20004;-87
2024/01/05 02:15:57;;;;;;;1.13;0.40;;;;;;;8.64;47.29;93921.00;6163567;23;20013;-86
2024/01/05 02:18:22;;;;;;;1.17;0.63;;;;;;;8.60;47.74;93925.78;6187455;23;20004;-86
2024/01/05 02:20:48;;;;;;;1.80;0.70;;;;;;;8.46;48.61;93915.59;6187735;23;20083;-86
2024/01/05 02:23:23;;;;;;;1.30;0.47;;;;;;;8.38;49.08;93927.69;6162830;23;20082;-86
2024/01/05 02:25:52;;;;;;;2.83;0.55;;;;;;;8.42;49.30;93935.91;6187725;23;20004;-86
2024/01/05 02:28:19;;;;;;;0.63;0.50;;;;;;;8.62;48.48;93943.72;6163499;23;20012;-86
2024/01/05 02:33:10;;;;;;;1.23;0.40;;;;;;;8.49;48.52;93943.69;6211552;23;20033;-86
2024/01/05 02:35:36;;;;;;;1.35;0.70;;;;;;;8.35;48.26;93935.84;6187662;23;20146;-86
2024/01/05 02:38:05;;;;;;;0.80;0.43;;;;;;;8.52;47.16;93933.75;6162883;23;20009;-86
2024/01/05 02:40:31;;;;;;;0.73;0.50;;;;;;;7.62;50.39;93943.31;6162659;23;20005;-85
2024/01/05 02:42:57;;;;;;;1.05;0.50;;;;;;;7.29;50.55;93928.41;6187195;23;20021;-86
2024/01/05 02:45:24;;;;;;;0.65;0.50;;;;;;;7.53;50.06;93936.69;6187655;23;20035;-86
2024/01/05 02:47:53;;;;;;;0.55;0.40;;;;;;;7.82;48.67;93933.06;6187696;23;20119;-86
2024/01/05 02:50:19;;;;;;;0.82;0.50;;;;;;;7.73;48.90;93919.50;6162437;23;20044;-85
2024/01/05 02:52:45;;;;;;;0.88;0.50;;;;;;;7.81;48.90;93929.69;6163040;23;20008;-86
2024/01/05 02:55:11;;;;;;;1.75;0.50;;;;;;;7.88;48.24;93903.03;6150324;22;20017;-86
2024/01/05 02:57:37;;;;;;;5.40;1.00;;;;;;;8.16;48.32;93910.69;6158956;23;20076;-85
2024/01/05 03:00:03;;;;;;;0.52;0.50;;;;;;;8.28;48.42;93911.75;6159403;23;19997;-87
2024/01/05 03:02:29;;;;;;;1.40;0.60;;;;;;;8.53;47.46;93904.25;6159761;23;20084;-86
2024/01/05 03:04:55;;;;;;;0.93;0.40;;;;;;;8.54;47.19;93900.66;6159721;23;20025;-85
2024/01/05 03:07:24;;;;;;;0.50;0.40;;;;;;;8.58;47.55;93896.66;6160084;23;20001;-86
2024/01/05 03:09:50;;;;;;;0.77;0.40;;;;;;;8.49;47.07;93882.31;6159115;23;20001;-86
2024/01/05 03:14:40;;;;;;;1.03;0.50;;;;;;;8.62;46.88;93868.56;6191897;23;20024;-86
2024/01/05 03:17:06;;;;;;;0.60;0.50;;;;;;;8.47;46.95;93862.75;6214185;23;20229;-86
2024/01/05 03:19:31;;;;;;;0.63;0.40;;;;;;;8.90;45.73;93863.19;6169644;23;20079;-86
2024/01/05 03:21:57;;;;;;;1.15;0.40;;;;;;;9.01;45.05;93861.78;6193878;23;20004;-85
2024/01/05 03:24:22;;;;;;;0.70;0.30;;;;;;;8.94;45.19;93864.38;6219464;23;20000;-86
2024/01/05 03:26:48;;;;;;;0.47;0.30;;;;;;;9.03;44.47;93861.59;6169422;23;20008;-86
2024/01/05 03:29:17;;;;;;;0.82;0.63;;;;;;;8.84;44.17;93851.03;6194167;23;20016;-85
2024/01/05 03:31:46;;;;;;;0.35;0.30;;;;;;;9.08;43.78;93860.00;6218027;23;20050;-86
2024/01/05 03:34:16;;;;;;;0.68;0.40;;;;;;;9.03;44.35;93851.22;6218271;23;20012;-86
2024/01/05 03:36:41;;;;;;;0.70;0.35;;;;;;;8.98;44.25;93855.19;6169752;23;20004;-86
2024/01/05 03:39:07;;;;;;;1.85;0.43;;;;;;;8.57;44.23;93839.88;6169546;23;20036;-86
2024/01/05 03:41:33;;;;;;;1.45;0.30;;;;;;;8.78;43.55;93854.44;6218582;23;20000;-86
2024/01/05 03:43:59;;;;;;;0.60;0.38;;;;;;;9.00;44.93;93831.66;6218748;23;20000;-86
2024/01/05 03:46:25;;;;;;;0.57;0.40;;;;;;;8.73;47.02;93833.47;6219491;23;20008;-86
2024/01/05 03:48:50;;;;;;;1.17;0.50;;;;;;;8.43;47.82;93830.47;6219209;23;20008;-86
2024/01/05 03:51:19;;;;;;;1.25;0.50;;;;;;;8.58;47.33;93839.66;6194030;23;20020;-86
2024/01/05 03:53:44;;;;;;;1.25;0.60;;;;;;;8.58;46.84;93826.69;6194931;23;20015;-86
2024/01/05 03:56:13;;;;;;;1.77;0.50;;;;;;;8.54;46.90;93807.34;6194392;23;20015;-86
2024/01/05 03:58:40;;;;;;;0.90;0.55;;;;;;;8.17;47.90;93817.28;6194072;23;20014;-86
2024/01/05 04:01:05;;;;;;;1.45;0.50;;;;;;;8.35;47.70;93808.91;6193995;23;20000;-86
2024/01/05 04:03:31;;;;;;;1.55;0.60;;;;;;;8.43;48.10;93800.16;6193523;23;20004;-86
2024/01/05 04:05:56;;;;;;;0.90;0.60;;;;;;;8.47;48.05;93816.91;6169171;23;20008;-86
2024/01/05 04:08:25;;;;;;;1.63;0.70;;;;;;;8.30;48.61;93818.28;6136675;23;20018;-86
2024/01/05 04:10:51;;;;;;;0.77;0.57;;;;;;;8.08;49.32;93809.88;6178941;23;20029;-85
2024/01/05 04:13:16;;;;;;;0.90;0.50;;;;;;;7.68;50.01;93794.25;6129524;23;20013;-86
2024/01/05 04:18:17;;;;;;;1.88;0.80;;;;;;;7.96;48.93;93799.31;6149095;23;20030;-86
2024/01/05 04:20:42;;;;;;;2.50;0.90;;;;;;;7.76;49.64;93801.84;6076337;23;20036;-86
2024/01/05 04:23:08;;;;;;;1.95;0.82;;;;;;;7.56;50.00;93787.06;6100028;23;20006;-86
2024/01/05 04:25:34;;;;;;;2.70;1.60;;;;;;;7.73;49.86;93799.63;6076149;23;20008;-86
2024/01/05 04:27:59;;;;;;;5.57;2.53;;;;;;;7.73;49.80;93787.50;6052743;23;20037;-86
2024/01/05 04:30:25;;;;;;;2.75;1.85;;;;;;;8.02;49.16;93788.94;6052308;23;20009;-86
2024/01/05 04:32:51;;;;;;;1.77;1.30;;;;;;;8.06;48.26;93784.19;6052580;23;20010;-86
2024/01/05 04:35:16;;;;;;;1.15;0.80;;;;;;;8.23;47.72;93785.41;6052381;23;20029;-86
2024/01/05 04:40:10;;;;;;;0.93;0.60;;;;;;;8.37;48.26;93790.59;6194702;23;20091;-86
2024/01/05 04:42:36;;;;;;;1.00;0.47;;;;;;;8.53;47.60;93782.44;6164648;23;20035;-86
2024/01/05 04:45:02;;;;;;;1.55;0.50;;;;;;;8.80;47.38;93780.63;6188317;23;20001;-86
2024/01/05 04:47:28;;;;;;;1.88;0.50;;;;;;;8.61;47.97;93784.03;6213813;23;20010;-86
2024/01/05 04:49:53;;;;;;;3.10;0.73;;;;;;;8.45;47.80;93782.63;6188652;23;20095;-86
2024/01/05 04:52:19;;;;;;;1.83;0.60;;;;;;;8.70;47.23;93782.03;6164207;23;20004;-86
2024/01/05 04:57:21;;;;;;;0.95;0.50;;;;;;;8.75;47.96;93779.63;6239629;22;20024;-86
2024/01/05 04:59:47;;;;;;;2.13;0.60;;;;;;;8.61;48.55;93761.50;6169049;23;20062;-86
2024/01/05 05:02:13;;;;;;;2.47;0.82;;;;;;;8.17;47.85;93772.44;6218802;23;20083;-86
2024/01/05 05:04:39;;;;;;;0.95;0.40;;;;;;;8.38;48.93;93777.44;6168899;23;20028;-86
2024/01/05 05:07:05;;;;;;;1.00;0.50;;;;;;;8.53;48.64;93782.44;6218660;23;20061;-86
2024/01/05 05:09:30;;;;;;;1.55;0.60;;;;;;;8.26;48.39;93775.63;6193314;23;20035;-86
2024/01/05 05:11:56;;;;;;;0.73;0.40;;;;;;;8.61;47.95;93784.03;6193410;23;20012;-86
2024/01/05 05:14:21;;;;;;;0.68;0.40;;;;;;;8.67;48.02;93790.22;6169533;23;20055;-86
2024/01/05 05:16:46;;;;;;;0.82;0.43;;;;;;;8.74;47.13;93785.84;6192866;23;20016;-86
2024/01/05 05:19:12;;;;;;;1.85;0.43;;;;;;;8.52;47.40;93783.44;6169051;23;20058;-86
2024/01/05 05:21:37;;;;;;;0.80;0.40;;;;;;;8.49;48.27;93776.06;6217595;23;20063;-87
2024/01/05 05:24:03;;;;;;;1.20;0.50;;;;;;;8.62;47.77;93767.47;6191997;23;20012;-86
2024/01/05 05:26:28;;;;;;;0.32;0.30;;;;;;;8.52;46.78;93762.72;6218630;23;20008;-85
2024/01/05 05:28:54;;;;;;;1.38;0.40;;;;;;;8.55;47.33;93771.88;6168510;23;20027;-86
2024/01/05 05:31:19;;;;;;;1.15;0.40;;;;;;;8.66;46.92;93773.06;6147170;23;20112;-85
2024/01/05 05:33:45;;;;;;;1.10;0.50;;;;;;;8.65;47.23;93779.25;6104823;23;20021;-86
2024/01/05 05:36:10;;;;;;;1.50;0.40;;;;;;;8.87;47.01;93775.44;6128947;23;20065;-86
2024/01/05 05:38:36;;;;;;;2.17;0.52;;;;;;;8.70;46.93;93776.84;6104675;23;20044;-86
2024/01/05 05:41:04;;;;;;;0.65;0.52;;;;;;;8.97;46.33;93759.47;6128885;23;20005;-86
2024/01/05 05:43:30;;;;;;;2.25;0.60;;;;;;;8.95;46.87;93772.63;6104533;23;20044;-86
2024/01/05 05:45:56;;;;;;;1.88;0.50;;;;;;;9.01;46.62;93771.03;6128445;23;20092;-86
2024/01/05 05:48:22;;;;;;;2.33;0.40;;;;;;;9.06;46.81;93770.41;6127666;23;20041;-86
2024/01/05 05:50:48;;;;;;;1.92;0.55;;;;;;;9.36;46.31;93774.09;6128604;23;20025;-86
2024/01/05 05:53:16;;;;;;;2.50;0.50;;;;;;;9.57;45.50;93764.44;6128845;23;20039;-86
2024/01/05 05:55:42;;;;;;;0.80;0.60;;;;;;;9.58;46.12;93774.63;6128740;23;20075;-85
2024/01/05 05:58:08;;;;;;;3.17;0.60;;;;;;;9.46;45.93;93772.88;6127802;23;20017;-86
2024/01/05 06:02:59;;;;;;;3.50;0.82;;;;;;;9.52;45.93;93777.22;6209543;22;20024;-86
2024/01/05 06:05:24;;;;;;;2.65;0.70;;;;;;;9.64;45.88;93783.38;6163146;23;20019;-86
2024/01/05 06:07:50;;;;;;;1.88;0.60;;;;;;;9.71;46.27;93783.34;6138419;23;20012;-86
2024/01/05 06:10:16;;;;;;;1.25;0.60;;;;;;;9.50;46.91;93789.63;6163208;23;20015;-85
2024/01/05 06:12:42;;;;;;;2.35;0.90;;;;;;;9.40;47.17;93787.47;6138118;23;20009;-86
2024/01/05 06:15:08;;;;;;;1.92;0.70;;;;;;;9.51;47.00;93780.84;6163211;23;20011;-86
2024/01/05 06:17:33;;;;;;;1.42;0.65;;;;;;;9.60;46.76;93784.81;6163204;23;20008;-86
2024/01/05 06:19:59;;;;;;;2.67;0.70;;;;;;;9.45;46.71;93792.06;6163077;23;20023;-85
2024/01/05 06:24:50;;;;;;;2.42;0.95;;;;;;;9.26;45.93;93799.69;6166943;23;20044;-86
2024/01/05 06:27:15;;;;;;;1.27;0.90;;;;;;;9.13;45.56;93792.72;6158394;23;20024;-85
2024/01/05 06:29:40;;;;;;;2.15;0.90;;;;;;;9.21;45.70;93786.53;6132963;23;20033;-86
2024/01/05 06:32:06;;;;;;;1.48;0.80;;;;;;;9.16;45.89;93799.31;6182444;23;20001;-86
2024/01/05 06:34:34;;;;;;;1.58;0.77;;;;;;;9.19;46.06;93797.13;6182796;23;20007;-86
2024/01/05 06:36:59;;;;;;;2.63;0.90;;;;;;;9.18;46.35;93799.91;6134087;23;20013;-87
2024/01/05 06:39:25;;;;;;;3.22;1.00;;;;;;;8.98;46.46;93787.75;6157683;23;20009;-85
2024/01/05 06:41:50;;;;;;;1.63;0.80;;;;;;;9.13;46.21;93784.16;6133185;23;20005;-86
2024/01/05 06:44:16;;;;;;;1.13;0.50;;;;;;;9.04;44.94;93791.34;6157820;23;20009;-86
2024/01/05 06:46:41;;;;;;;1.15;0.60;;;;;;;8.97;45.06;93788.00;6182901;23;20029;-86
2024/01/05 06:49:07;;;;;;;0.80;0.55;;;;;;;9.18;45.42;93811.06;6126338;23;20021;-86
2024/01/05 06:51:39;;;;;;;2.85;0.60;;;;;;;8.89;46.39;93811.53;6158231;23;20156;-86
2024/01/05 06:54:05;;;;;;;1.52;0.60;;;;;;;9.18;45.54;93803.28;6157487;23;20016;-86
2024/01/05 06:56:34;;;;;;;1.35;0.63;;;;;;;9.33;44.78;93789.31;6182208;23;20015;-85
2024/01/05 06:59:01;;;;;;;0.70;0.60;;;;;;;9.19;44.22;93793.72;6157814;23;20093;-86
2024/01/05 07:01:27;;;;;;;0.68;0.40;;;;;;;9.30;44.69;93787.09;6180616;23;20008;-86
2024/01/05 07:03:52;;;;;;;0.93;0.55;;;;;;;9.33;44.59;93792.69;6156876;23;20009;-86
2024/01/05 07:06:18;;;;;;;1.02;0.80;;;;;;;9.14;44.53;93775.38;6181294;23;20053;-86
2024/01/05 07:08:43;;;;;;;1.83;1.23;;;;;;;9.11;45.29;93786.16;6181502;23;20016;-86
2024/01/05 07:11:10;;;;;;;1.77;1.00;;;;;;;9.11;45.64;93789.53;6156716;23;20071;-86
2024/01/05 07:13:34;;;;;;;1.48;0.75;;;;;;;9.07;46.12;93779.78;6184820;23;20025;-86
2024/01/05 07:16:00;;;;;;;1.15;0.80;;;;;;;9.11;46.03;93786.16;6162326;23;20024;-86
2024/01/05 07:18:26;;;;;;;1.30;1.10;;;;;;;9.03;47.74;93771.63;6162413;23;20091;-86
2024/01/05 07:20:52;;;;;;;3.42;1.42;;;;;;;9.14;48.07;93772.78;6138121;23;20016;-86
2024/01/05 07:23:17;;;;;;;2.10;1.45;;;;;;;9.23;48.91;93776.72;6138518;23;20038;-87
2024/01/05 07:25:43;;;;;;;3.67;1.70;;;;;;;8.86;49.99;93767.88;6163025;23;20008;-86
2024/01/05 07:28:09;;;;;;;4.50;1.80;;;;;;;9.00;50.10;93772.00;6162796;23;20010;-86
2024/01/05 07:30:34;;;;;;;4.15;1.58;;;;;;;9.24;50.02;93773.16;6187331;23;20000;-87
2024/01/05 07:33:01;;;;;;;3.88;1.40;;;;;;;9.43;49.15;93768.09;6187287;23;20025;-86
2024/01/05 07:35:27;;;;;;;3.85;1.40;;;;;;;9.20;49.51;93751.22;6206983;23;20023;-85
2024/01/05 07:37:53;;;;;;;2.78;1.30;;;;;;;9.17;49.50;93749.03;6186757;23;20020;-85
2024/01/05 07:40:18;;;;;;;4.50;1.02;;;;;;;9.14;49.94;93726.09;6162700;23;20011;-85
2024/01/05 07:42:44;;;;;;;2.63;1.10;;;;;;;9.42;49.13;93750.94;6139015;23;20012;-86
2024/01/05 07:45:09;;;;;;;2.42;0.80;;;;;;;9.49;48.84;93749.09;6139645;23;20088;-86
2024/01/05 07:47:35;;;;;;;3.40;1.17;;;;;;;9.52;49.33;93743.47;6188267;23;20016;-85
2024/01/05 07:50:03;;;;;;;1.85;1.10;;;;;;;9.41;49.59;93734.56;6164047;23;20092;-86
2024/01/05 07:52:29;;;;;;;1.92;1.00;;;;;;;9.55;49.13;93743.09;6164960;23;20004;-86
2024/01/05 07:54:54;;;;;;;3.60;1.10;;;;;;;9.44;49.03;93733.34;6164330;23;20092;-85
2024/01/05 07:57:19;;;;;;;1.98;0.80;;;;;;;9.64;48.64;93734.06;6189039;23;20004;-86
2024/01/05 07:59:45;;;;;;;2.80;0.90;;;;;;;9.67;48.90;93738.84;6139746;23;20058;-86
2024/01/05 08:02:11;;;;;;;3.22;0.90;;;;;;;9.80;48.79;93737.94;6163994;23;20027;-86
2024/01/05 08:04:37;;;;;;;7.03;2.40;;;;;;;10.00;47.50;93742.25;6164491;23;20013;-86
2024/01/05 08:09:29;;;;;;;3.95;1.60;;;;;;;10.11;47.41;93733.75;6183523;23;20100;-86
2024/01/05 08:11:54;;;;;;;4.15;1.40;;;;;;;10.21;47.29;93733.31;6139335;23;20083;-86
2024/01/05 08:14:19;;;;;;;5.05;1.13;;;;;;;10.36;46.79;93726.03;6189993;23;20070;-86
2024/01/05 08:16:45;;;;;;;3.78;1.40;;;;;;;10.17;46.43;93706.94;6165537;23;20028;-85
2024/01/05 08:19:14;;;;;;;2.85;1.27;;;;;;;10.26;47.07;93723.88;6164376;23;20001;-86
2024/01/05 08:21:40;;;;;;;2.72;0.90;;;;;;;10.23;47.20;93716.50;6164163;23;20017;-86
2024/01/05 08:24:06;;;;;;;3.80;1.00;;;;;;;10.28;46.82;93708.03;6188755;23;20159;-86
2024/01/05 08:26:31;;;;;;;3.28;1.25;;;;;;;10.37;47.50;93706.81;6164267;23;20058;-86
2024/01/05 08:28:57;;;;;;;3.05;1.42;;;;;;;10.49;46.66;93702.50;6164150;23;20020;-86
2024/01/05 08:31:24;;;;;;;3.65;1.50;;;;;;;10.49;47.35;93705.13;6139814;23;20005;-86
2024/01/05 08:33:49;;;;;;;3.85;1.25;;;;;;;10.54;47.19;93691.47;6164195;23;20035;-86
2024/01/05 08:36:16;;;;;;;2.97;1.40;;;;;;;10.55;47.84;93690.47;6164525;23;20040;-87
2024/01/05 08:38:44;;;;;;;2.38;1.27;;;;;;;10.71;47.43;93683.91;6188716;23;20012;-86
2024/01/05 08:41:13;;;;;;;2.83;1.30;;;;;;;10.80;46.60;93674.03;6188341;23;20001;-86
2024/01/05 08:43:41;;;;;;;3.28;1.08;;;;;;;10.75;46.18;93687.66;6188140;23;20023;-85
2024/01/05 08:48:45;;;;;;;6.10;1.40;;;;;;;10.72;47.43;93688.09;6210408;23;20021;-85
2024/01/05 08:51:10;;;;;;;3.40;1.40;;;;;;;10.62;48.04;93688.56;6138602;23;20047;-87
2024/01/05 08:53:36;;;;;;;2.70;1.60;;;;;;;10.69;48.04;93697.09;6162905;23;20044;-87
2024/01/05 08:56:02;;;;;;;4.22;1.92;;;;;;;10.52;48.13;93686.47;6138560;23;20019;-85
2024/01/05 08:58:27;;;;;;;2.75;1.20;;;;;;;10.80;47.47;93695.63;6138535;23;20004;-85
2024/01/05 09:01:00;;;;;;;4.22;1.30;;;;;;;10.81;48.04;93699.78;6212495;23;20021;-86
2024/01/05 09:03:25;;;;;;;2.28;0.90;;;;;;;10.96;47.92;93708.03;6162838;23;20039;-87
2024/01/05 09:05:53;;;;;;;2.95;1.27;;;;;;;10.89;47.68;93699.53;6187853;23;20000;-86
2024/01/05 09:10:47;;;;;;;2.20;1.20;;;;;;;10.82;47.54;93705.81;6207406;23;20024;-87
2024/01/05 09:13:13;;;;;;;3.00;1.27;;;;;;;11.16;46.95;93709.63;6163640;23;20014;-86
2024/01/05 09:15:38;;;;;;;5.38;1.58;;;;;;;10.92;47.09;93687.88;6139254;23;20095;-84
2024/01/05 09:18:05;;;;;;;2.78;1.23;;;;;;;11.00;46.61;93705.00;6188633;23;20012;-85
2024/01/05 09:20:30;;;;;;;3.30;1.25;;;;;;;10.99;47.19;93709.41;6163426;23;20000;-86
2024/01/05 09:25:22;;;;;;;3.93;1.40;;;;;;;11.05;47.03;93712.97;6212848;22;20020;-87
2024/01/05 09:27:47;;;;;;;1.98;1.10;;;;;;;11.14;46.98;93702.03;6164036;23;20244;-86
2024/01/05 09:30:14;;;;;;;2.97;1.13;;;;;;;11.21;46.84;93716.78;6138759;23;20044;-87
2024/01/05 09:32:43;;;;;;;3.03;1.20;;;;;;;11.43;46.81;93719.72;6104804;23;20016;-87
2024/01/05 09:35:08;;;;;;;3.65;1.80;;;;;;;11.28;48.12;93712.28;6128638;23;20017;-88
2024/01/05 09:37:36;;;;;;;3.20;1.90;;;;;;;11.16;48.80;93725.25;6152667;23;20005;-86
2024/01/05 09:40:02;;;;;;;4.20;1.48;;;;;;;11.10;48.57;93728.69;6127878;23;20006;-86
2024/01/05 09:42:27;;;;;;;7.13;3.40;;;;;;;11.16;50.36;93727.84;6195023;23;20005;-87
2024/01/05 09:44:54;;;;;;;3.67;2.22;;;;;;;11.21;49.74;93737.59;6161632;23;20028;-87
2024/01/05 09:47:19;;;;;;;4.50;2.90;;;;;;;11.22;50.24;93731.38;6187843;23;20009;-86
2024/01/05 09:49:49;;;;;;;4.72;3.38;;;;;;;11.24;49.56;93739.78;6186920;23;20008;-87
2024/01/05 09:52:15;;;;;;;5.90;3.50;;;;;;;11.09;49.98;93745.34;6162233;23;20012;-87
2024/01/05 09:54:46;;;;;;;9.75;4.07;;;;;;;11.22;50.31;93750.41;6162641;23;20005;-86
2024/01/05 09:57:15;;;;;;;6.45;4.05;;;;;;;11.14;50.33;93748.09;6162899;23;20091;-87
2024/01/05 09:59:44;;;;;;;9.70;4.40;;;;;;;11.00;50.41;93741.44;6185529;23;20022;-87
2024/01/05 10:04:42;;;;;;;6.60;3.33;;;;;;;11.11;48.70;93727.69;6211651;23;20040;-86
2024/01/05 10:07:07;;;;;;;5.10;2.67;;;;;;;11.08;48.98;93731.53;6186388;23;20187;-86
2024/01/05 10:09:49;;;;;;;5.57;2.33;;;;;;;11.03;49.67;93735.81;6186430;23;20058;-87
2024/01/05 10:12:14;;;;;;;3.70;2.30;;;;;;;11.07;49.34;93742.16;6187265;23;20000;-86
2024/01/05 10:17:18;;;;;;;7.45;4.10;;;;;;;11.35;48.75;93719.00;6201287;23;20075;-85
2024/01/05 10:19:43;;;;;;;7.72;4.38;;;;;;;11.46;48.16;93729.69;6162783;23;20017;-85
2024/01/05 10:22:13;;;;;;;6.63;4.03;;;;;;;11.28;49.36;93717.50;6161620;23;20066;-85
2024/01/05 10:24:40;;;;;;;6.30;3.85;;;;;;;11.30;48.90;93724.06;6187370;23;20004;-87
2024/01/05 10:27:10;;;;;;;6.75;4.28;;;;;;;11.51;47.69;93719.41;6186813;23;20139;-87
2024/01/05 10:29:43;;;;;;;6.65;2.85;;;;;;;11.61;46.92;93726.69;6186214;23;20001;-86
2024/01/05 10:32:13;;;;;;;3.10;1.90;;;;;;;11.44;46.19;93716.91;6185518;23;20146;-87
2024/01/05 10:34:52;;;;;;;3.28;1.80;;;;;;;11.42;46.27;93716.31;6186574;23;20008;-86
2024/01/05 10:37:21;;;;;;;4.05;2.15;;;;;;;11.36;46.49;93704.19;6186574;23;20008;-86
2024/01/05 10:44:53;;;;;;;3.33;2.25;;;;;;;11.37;47.24;93700.56;6209992;23;20102;-87
2024/01/05 10:47:20;;;;;;;3.47;2.20;;;;;;;11.41;47.43;93711.34;6158907;23;20054;-86
2024/01/05 10:49:51;;;;;;;3.88;2.35;;;;;;;11.50;47.12;93704.81;6187231;23;20017;-85
2024/01/05 10:52:20;;;;;;;6.07;2.88;;;;;;;11.12;47.07;93698.06;6185986;23;20040;-87
2024/01/05 10:54:47;;;;;;;7.03;2.70;;;;;;;11.25;46.65;93710.94;6161731;23;20015;-87
2024/01/05 10:57:14;;;;;;;7.85;2.95;;;;;;;11.12;47.58;93687.66;6184787;23;20012;-87
2024/01/05 10:59:47;;;;;;;4.18;2.60;;;;;;;11.11;47.17;93701.69;6186629;23;20011;-87
2024/01/05 11:02:24;;;;;;;4.05;2.42;;;;;;;11.42;47.16;93716.31;6186899;23;20001;-86
2024/01/05 11:07:38;;;;;;;5.75;2.30;;;;;;;11.37;47.41;93707.59;6209477;23;20080;-86
2024/01/05 11:10:35;;;;;;;2.95;2.05;;;;;;;11.12;48.31;93709.28;6162543;23;20017;-85
2024/01/05 11:13:07;;;;;;;3.50;2.47;;;;;;;11.00;48.34;93702.41;6186826;23;20011;-85
2024/01/05 11:15:48;;;;;;;4.88;2.28;;;;;;;10.76;49.16;93699.66;6187296;23;20004;-85
2024/01/05 11:18:44;;;;;;;2.40;1.38;;;;;;;10.84;48.43;93701.97;6189540;23;20068;-85
2024/01/05 11:21:23;;;;;;;3.25;1.50;;;;;;;10.54;49.51;93694.84;6189107;23;20004;-85
2024/01/05 11:23:50;;;;;;;3.13;1.45;;;;;;;10.44;49.61;93688.56;6189122;23;20008;-85
2024/01/05 11:26:36;;;;;;;2.03;1.50;;;;;;;10.31;48.82;93698.06;6189255;23;20009;-85
2024/01/05 11:29:02;;;;;;;2.78;1.35;;;;;;;10.20;49.33;93696.13;6188973;23;20013;-85
2024/01/05 11:31:46;;;;;;;2.42;1.63;;;;;;;10.00;50.42;93703.28;6188677;23;20011;-85
2024/01/05 11:34:31;;;;;;;2.05;1.52;;;;;;;10.01;50.85;93702.25;6188534;23;20011;-85
2024/01/05 11:36:57;;;;;;;3.22;1.67;;;;;;;10.31;49.59;93685.06;6189149;23;20004;-85
2024/01/05 11:40:00;;;;;;;2.40;1.70;;;;;;;10.24;48.59;93696.50;6139420;23;20012;-85
2024/01/05 11:42:33;;;;;;;3.53;1.85;;;;;;;10.38;47.86;93690.22;6041277;23;20010;-85
2024/01/05 11:45:04;;;;;;;1.90;1.42;;;;;;;10.36;47.36;93695.63;6166869;23;20078;-85
2024/01/05 11:47:56;;;;;;;2.83;1.60;;;;;;;10.45;46.26;93688.34;6164148;23;20005;-85
2024/01/05 11:50:32;;;;;;;2.58;1.35;;;;;;;10.50;46.15;93691.09;6181544;23;20012;-85
2024/01/05 11:53:19;;;;;;;2.67;1.67;;;;;;;10.47;46.79;93688.94;6188942;23;20032;-85
2024/01/05 11:55:52;;;;;;;2.90;1.30;;;;;;;10.59;47.24;93693.44;6166262;23;20035;-85
2024/01/05 11:58:29;;;;;;;3.35;1.45;;;;;;;10.34;48.38;93686.47;6188978;23;20024;-85
2024/01/05 12:00:56;;;;;;;3.47;1.65;;;;;;;10.45;47.80;93687.53;6164946;23;20087;-85
2024/01/05 12:03:24;;;;;;;3.72;1.80;;;;;;;10.36;48.36;93681.84;6164259;23;20001;-85
2024/01/05 12:06:04;;;;;;;2.17;1.70;;;;;;;10.27;49.14;93691.66;6188461;23;20015;-85
2024/01/05 12:08:30;;;;;;;3.23;1.60;;;;;;;10.59;48.00;93685.63;6188025;23;20083;-85
2024/01/05 12:11:03;;;;;;;1.85;1.50;;;;;;;10.42;47.05;93669.78;6188342;23;20242;-85
2024/01/05 12:13:32;;;;;;;4.72;2.08;;;;;;;10.11;50.12;93667.03;6165016;23;20063;-85
2024/01/05 12:16:05;;;;;;;2.60;1.90;;;;;;;10.27;50.85;93663.09;6164333;23;20091;-85
2024/01/05 12:18:32;;;;;;;2.60;1.67;;;;;;;10.16;51.47;93659.38;6188652;23;20013;-85
2024/01/05 12:21:00;;;;;;;3.15;1.67;;;;;;;10.46;50.12;93658.75;6188967;23;20005;-85
2024/01/05 12:23:27;;;;;;;4.53;1.98;;;;;;;10.50;50.91;93651.31;6188697;23;20005;-85